Portada
METAR-TAF:

METAR-TAF

Aeroports :

Aeroport Internacional Jomo Kenyatta

Nairobi, Kenya

latitud: 01-19S, longitud: 036-55E, altitud: 1624 m

METAR: manca

Hora: 15:08 (12:08 UTC)

Pronòstic

L'informe es va fer fa 1 hora i 8 minuts, a les 11:00 UTC
Pronòstic vàlid del 19 a les 12 UTC al 20 a les 18 UTC
Vent 10 kt del Est/Nord-Est
Visibilitat 10 km o més
Cel ennuvolat a una alçada de 2800 ft
Evolucionant progressivament
l' 19 a les 20 UTC al 19 a les 23 UTC
Escasses núvols a una alçada de 1800 ft
Evolucionant progressivament
l' 20 a les 08 UTC al 20 a les 11 UTC
Cel ennuvolat a una alçada de 2600 ft

TAF: HKJK 191100Z 1912/2018 06010KT 9999 BKN028 BECMG 1920/1923 FEW018 BECMG 2008/2011 BKN026

Observacions i pronòstics meteorològics de més de 4000 aeroports (METAR i TAF).

Les estacions disponibles són els punts grocs i vermells al mapa.

Posi el ratolí al punt desitjat per veure el nom de l'estació.

Feu clic per veure les observacions i els pronòstics meteorològics.

Per canviar el mapa: feu clic els botons verds amb una creu de color negre per apropar; al botó verd amb un guió per allunyar la imatge; o en les fletxes verdes per a mapes adjacents.


METAR-TAF: